createdAt,value
2019-02-08T00:01:59.391Z,5.27
2019-02-08T00:04:30.294Z,5.28
2019-02-08T00:07:01.572Z,5.23
2019-02-08T00:09:32.966Z,5.23
2019-02-08T00:12:03.905Z,5.21
2019-02-08T00:14:34.803Z,5.21
2019-02-08T00:17:05.746Z,5.21
2019-02-08T00:19:36.652Z,5.21
2019-02-08T00:22:08.679Z,5.21
2019-02-08T00:24:39.615Z,5.18
2019-02-08T00:27:12.544Z,5.18
2019-02-08T00:29:43.459Z,5.15
2019-02-08T00:32:14.411Z,5.11
2019-02-08T00:34:45.287Z,5.10
2019-02-08T00:37:16.525Z,5.09
2019-02-08T00:39:47.425Z,5.09
2019-02-08T00:42:18.723Z,5.06
2019-02-08T00:44:50.511Z,5.03
2019-02-08T00:47:21.441Z,5.01
2019-02-08T00:49:52.623Z,5.00
2019-02-08T00:52:23.546Z,4.98
2019-02-08T00:54:54.456Z,4.94
2019-02-08T00:57:25.448Z,4.91
2019-02-08T00:59:56.356Z,4.89
2019-02-08T01:02:27.361Z,4.83
2019-02-08T01:04:58.536Z,4.80
2019-02-08T01:07:29.474Z,4.71
2019-02-08T01:10:00.454Z,4.71
2019-02-08T01:12:31.406Z,4.65
2019-02-08T01:15:02.321Z,4.62
2019-02-08T01:17:33.320Z,4.58
2019-02-08T01:20:16.275Z,4.55
2019-02-08T01:22:47.313Z,4.54
2019-02-08T01:25:20.116Z,4.45
2019-02-08T01:27:51.667Z,4.49
2019-02-08T01:30:24.768Z,4.45
2019-02-08T01:32:55.809Z,4.45
2019-02-08T01:35:28.155Z,4.44
2019-02-08T01:38:00.300Z,4.48
2019-02-08T01:40:36.707Z,4.50
2019-02-08T01:43:09.188Z,4.48
2019-02-08T01:45:40.703Z,4.52
2019-02-08T01:48:12.004Z,4.51
2019-02-08T01:50:42.906Z,4.52
2019-02-08T01:53:13.839Z,4.56
2019-02-08T01:55:44.757Z,4.59
2019-02-08T01:58:15.707Z,4.57
2019-02-08T02:00:46.605Z,4.55
2019-02-08T02:03:17.637Z,4.58
2019-02-08T02:05:48.535Z,4.57
2019-02-08T02:08:19.541Z,4.61
2019-02-08T02:10:50.456Z,4.56
2019-02-08T02:13:21.469Z,4.58
2019-02-08T02:15:52.378Z,4.61
2019-02-08T02:18:23.302Z,4.61
2019-02-08T02:20:54.203Z,4.56
2019-02-08T02:23:25.611Z,4.57
2019-02-08T02:25:56.464Z,4.58
2019-02-08T02:28:27.580Z,4.60
2019-02-08T02:30:58.478Z,4.62
2019-02-08T02:33:29.419Z,4.64
2019-02-08T02:36:00.318Z,4.63
2019-02-08T02:38:31.255Z,4.63
2019-02-08T02:41:02.149Z,4.63
2019-02-08T02:43:33.168Z,4.60
2019-02-08T02:46:04.859Z,4.54
2019-02-08T02:48:35.770Z,4.56
2019-02-08T02:51:06.692Z,4.58
2019-02-08T02:53:37.613Z,4.55
2019-02-08T02:56:08.521Z,4.56
2019-02-08T02:58:39.594Z,4.54
2019-02-08T03:01:10.562Z,4.54
2019-02-08T03:03:41.497Z,4.52
2019-02-08T03:06:12.410Z,4.51
2019-02-08T03:08:43.350Z,4.48
2019-02-08T03:11:14.264Z,4.47
2019-02-08T03:13:45.265Z,4.46
2019-02-08T03:16:16.158Z,4.45
2019-02-08T03:18:47.091Z,4.43
2019-02-08T03:21:17.978Z,4.41
2019-02-08T03:23:48.911Z,4.41
2019-02-08T03:26:19.815Z,4.41
2019-02-08T03:28:50.955Z,4.33
2019-02-08T03:31:21.862Z,4.36
2019-02-08T03:33:52.785Z,4.40
2019-02-08T03:36:23.691Z,4.42
2019-02-08T03:38:54.632Z,4.41
2019-02-08T03:41:25.535Z,4.40
2019-02-08T03:43:56.579Z,4.38
2019-02-08T03:46:29.359Z,4.38
2019-02-08T03:49:00.280Z,4.37
2019-02-08T03:51:31.198Z,4.36
2019-02-08T03:54:02.217Z,4.40
2019-02-08T03:56:33.123Z,4.35
2019-02-08T03:59:04.071Z,4.35
2019-02-08T04:01:35.074Z,4.38
2019-02-08T04:04:14.744Z,4.41
2019-02-08T04:06:45.653Z,4.40
2019-02-08T04:09:16.596Z,4.40
2019-02-08T04:11:47.493Z,4.42
2019-02-08T04:14:18.533Z,4.40
2019-02-08T04:16:49.452Z,4.36
2019-02-08T04:19:20.383Z,4.38
2019-02-08T04:21:51.360Z,4.40
2019-02-08T04:24:29.836Z,4.39
2019-02-08T04:26:54.960Z,4.40
2019-02-08T04:29:26.024Z,4.37
2019-02-08T04:31:56.925Z,4.32
2019-02-08T04:34:27.857Z,4.28
2019-02-08T04:36:58.770Z,4.26
2019-02-08T04:39:29.708Z,4.29
2019-02-08T04:42:00.616Z,4.31
2019-02-08T04:44:32.112Z,4.29
2019-02-08T04:47:03.008Z,4.29
2019-02-08T04:49:33.930Z,4.26
2019-02-08T04:52:04.838Z,4.28
2019-02-08T04:54:38.373Z,4.24
2019-02-08T04:57:08.350Z,4.27
2019-02-08T04:59:39.296Z,4.23
2019-02-08T05:02:10.193Z,4.26
2019-02-08T05:04:41.129Z,4.27
2019-02-08T05:07:12.023Z,4.27
2019-02-08T05:09:42.963Z,4.20
2019-02-08T05:12:13.864Z,4.21
2019-02-08T05:14:45.186Z,4.28
2019-02-08T05:17:16.087Z,4.30
2019-02-08T05:19:47.031Z,4.28
2019-02-08T05:22:17.930Z,4.27
2019-02-08T05:24:48.877Z,4.29
2019-02-08T05:27:19.774Z,4.33
2019-02-08T05:29:50.734Z,4.30
2019-02-08T05:32:21.706Z,4.34
2019-02-08T05:34:52.634Z,4.36
2019-02-08T05:37:27.242Z,4.38
2019-02-08T05:39:58.179Z,4.37
2019-02-08T05:42:29.075Z,4.39
2019-02-08T05:45:00.039Z,4.41
2019-02-08T05:47:31.930Z,4.43
2019-02-08T05:50:02.864Z,4.40
2019-02-08T05:52:33.762Z,4.49
2019-02-08T05:55:07.704Z,4.53
2019-02-08T05:57:38.587Z,4.60
2019-02-08T06:00:22.370Z,4.60
2019-02-08T06:02:53.355Z,4.67
2019-02-08T06:05:25.571Z,4.69
2019-02-08T06:07:56.547Z,4.74
2019-02-08T06:10:27.491Z,4.77
2019-02-08T06:12:58.383Z,4.76
2019-02-08T06:15:29.437Z,4.79
2019-02-08T06:18:00.457Z,4.80
2019-02-08T06:20:31.394Z,4.88
2019-02-08T06:23:02.368Z,4.88
2019-02-08T06:25:33.302Z,4.88
2019-02-08T06:28:05.112Z,4.95
2019-02-08T06:30:36.492Z,5.00
2019-02-08T06:33:07.483Z,5.02
2019-02-08T06:35:38.523Z,5.04
2019-02-08T06:38:09.521Z,5.03
2019-02-08T06:40:42.876Z,4.99
2019-02-08T06:43:13.782Z,5.03
2019-02-08T06:45:44.904Z,5.06
2019-02-08T06:48:16.609Z,5.05
2019-02-08T06:50:47.525Z,5.10
2019-02-08T06:53:18.431Z,5.12
2019-02-08T06:55:53.836Z,5.17
2019-02-08T06:58:29.592Z,5.18
2019-02-08T07:01:02.353Z,5.20
2019-02-08T07:03:37.639Z,5.16
2019-02-08T07:06:13.291Z,5.17
2019-02-08T07:08:45.869Z,5.06
2019-02-08T07:11:24.275Z,5.11
2019-02-08T07:14:05.798Z,5.13
2019-02-08T07:16:38.626Z,5.08
2019-02-08T07:19:11.222Z,5.05
2019-02-08T07:21:43.781Z,5.03
2019-02-08T07:24:34.336Z,5.04
2019-02-08T07:27:07.014Z,5.04
2019-02-08T07:29:40.174Z,4.97
2019-02-08T07:32:15.842Z,4.94
2019-02-08T07:35:06.501Z,4.97
2019-02-08T07:37:41.914Z,4.98
2019-02-08T07:40:29.301Z,5.05
2019-02-08T07:43:05.951Z,5.23
2019-02-08T07:45:56.359Z,5.41
2019-02-08T07:48:32.113Z,5.60
2019-02-08T07:51:04.662Z,5.60
2019-02-08T07:53:40.080Z,5.71
2019-02-08T07:56:16.479Z,5.80
2019-02-08T07:59:07.395Z,5.84
2019-02-08T08:01:40.626Z,5.83
2019-02-08T08:04:13.230Z,5.86
2019-02-08T08:06:45.887Z,6.09
2019-02-08T08:09:21.416Z,6.35
2019-02-08T08:11:56.777Z,6.65
2019-02-08T08:14:29.762Z,6.69
2019-02-08T08:17:18.549Z,6.75
2019-02-08T08:20:04.255Z,6.92
2019-02-08T08:22:39.699Z,7.06
2019-02-08T08:25:12.578Z,7.30
2019-02-08T08:27:45.127Z,7.39
2019-02-08T08:30:23.482Z,7.45
2019-02-08T08:32:57.368Z,7.52
2019-02-08T08:35:43.164Z,7.44
2019-02-08T08:38:44.128Z,7.49
2019-02-08T08:41:37.541Z,7.54
2019-02-08T08:44:30.905Z,7.78
2019-02-08T08:47:24.361Z,7.82
2019-02-08T08:50:14.255Z,7.98
2019-02-08T08:52:59.820Z,7.97
2019-02-08T08:55:42.082Z,7.97
2019-02-08T08:58:14.934Z,8.00
2019-02-08T09:00:51.387Z,7.89
2019-02-08T09:03:30.745Z,7.81
2019-02-08T09:06:13.561Z,7.59
2019-02-08T09:08:50.205Z,7.55
2019-02-08T09:11:25.208Z,7.45
2019-02-08T09:14:05.086Z,7.50
2019-02-08T09:16:51.156Z,7.58
2019-02-08T09:19:53.779Z,7.48
2019-02-08T09:22:39.323Z,7.39
2019-02-08T09:25:34.329Z,7.33
2019-02-08T09:28:10.820Z,7.42
2019-02-08T09:31:17.809Z,7.46
2019-02-08T09:34:17.180Z,7.56
2019-02-08T09:37:10.366Z,7.74
2019-02-08T09:39:46.917Z,7.93
2019-02-08T09:42:55.459Z,7.98
2019-02-08T09:45:44.399Z,8.10
2019-02-08T09:48:40.712Z,8.19
2019-02-08T09:51:17.219Z,8.31
2019-02-08T09:53:54.035Z,8.33
2019-02-08T09:56:55.279Z,8.52
2019-02-08T09:59:44.147Z,8.43
2019-02-08T10:02:29.811Z,8.54
2019-02-08T10:05:25.943Z,8.71
2019-02-08T10:08:32.972Z,8.84
2019-02-08T10:11:32.134Z,8.87
2019-02-08T10:14:29.986Z,8.69
2019-02-08T10:17:12.681Z,8.62
2019-02-08T10:19:58.152Z,8.58
2019-02-08T10:22:38.003Z,8.70
2019-02-08T10:25:28.218Z,8.65
2019-02-08T10:28:17.239Z,8.68
2019-02-08T10:31:12.169Z,8.69
2019-02-08T10:34:18.999Z,8.77
2019-02-08T10:37:21.439Z,8.75
2019-02-08T10:40:14.578Z,8.75
2019-02-08T10:43:21.642Z,8.72
2019-02-08T10:46:01.611Z,8.80
2019-02-08T10:49:08.545Z,8.81
2019-02-08T10:52:01.945Z,8.83
2019-02-08T10:54:53.900Z,8.81
2019-02-08T10:57:59.568Z,8.89
2019-02-08T11:01:00.665Z,8.96
2019-02-08T11:04:01.661Z,9.10
2019-02-08T11:06:51.896Z,9.23
2019-02-08T11:09:52.815Z,9.23
2019-02-08T11:12:49.061Z,9.21
2019-02-08T11:15:39.354Z,9.22
2019-02-08T11:18:47.262Z,9.19
2019-02-08T11:21:18.193Z,9.19
2019-02-08T11:23:49.099Z,9.16
2019-02-08T11:26:23.060Z,9.21
2019-02-08T11:28:52.646Z,9.27
2019-02-08T11:31:23.584Z,9.48
2019-02-08T11:33:54.483Z,9.65
2019-02-08T11:36:25.514Z,9.72
2019-02-08T11:38:56.426Z,9.82
2019-02-08T11:41:27.569Z,9.86
2019-02-08T11:43:58.470Z,9.81
2019-02-08T11:46:29.613Z,9.90
2019-02-08T11:49:00.509Z,9.87
2019-02-08T11:51:31.449Z,9.84
2019-02-08T11:54:02.349Z,9.75
2019-02-08T11:56:33.312Z,9.67
2019-02-08T11:59:04.708Z,9.72
2019-02-08T12:01:37.284Z,9.68
2019-02-08T12:04:08.793Z,9.67
2019-02-08T12:06:39.728Z,9.56
2019-02-08T12:09:12.941Z,9.47
2019-02-08T12:11:44.342Z,9.43
2019-02-08T12:14:15.491Z,9.40
2019-02-08T12:16:46.420Z,9.35
2019-02-08T12:19:17.316Z,9.33
2019-02-08T12:21:48.246Z,9.18
2019-02-08T12:24:19.152Z,9.21
2019-02-08T12:26:50.180Z,9.13
2019-02-08T12:29:21.085Z,9.07
2019-02-08T12:31:52.062Z,8.96
2019-02-08T12:34:22.969Z,8.92
2019-02-08T12:36:53.909Z,8.90
2019-02-08T12:39:24.810Z,8.89
2019-02-08T12:41:55.785Z,8.95
2019-02-08T12:44:26.693Z,9.07
2019-02-08T12:46:57.630Z,9.19
2019-02-08T12:49:28.522Z,9.18
2019-02-08T12:51:59.461Z,9.14
2019-02-08T12:54:30.380Z,9.20
2019-02-08T12:57:01.353Z,9.04
2019-02-08T12:59:32.309Z,9.01
2019-02-08T13:02:03.220Z,8.92
2019-02-08T13:04:34.122Z,8.92
2019-02-08T13:07:05.259Z,8.96
2019-02-08T13:09:36.166Z,8.99
2019-02-08T13:12:07.114Z,9.06
2019-02-08T13:14:38.022Z,9.10
2019-02-08T13:17:08.950Z,9.08
2019-02-08T13:19:39.851Z,9.14
2019-02-08T13:22:10.785Z,9.20
2019-02-08T13:24:41.691Z,9.23
2019-02-08T13:27:12.643Z,9.24
2019-02-08T13:29:43.554Z,9.21
2019-02-08T13:32:14.493Z,9.25
2019-02-08T13:34:45.395Z,9.27
2019-02-08T13:37:16.328Z,9.22
2019-02-08T13:39:47.239Z,9.23
2019-02-08T13:42:18.228Z,9.24
2019-02-08T13:44:49.146Z,9.25
2019-02-08T13:47:20.190Z,9.22
2019-02-08T13:49:51.100Z,9.14
2019-02-08T13:52:22.034Z,9.18
2019-02-08T13:54:53.052Z,9.20
2019-02-08T13:57:23.998Z,9.23
2019-02-08T13:59:54.908Z,9.21
2019-02-08T14:02:25.853Z,9.18
2019-02-08T14:04:56.764Z,9.14
2019-02-08T14:07:27.699Z,9.12
2019-02-08T14:09:58.603Z,9.08
2019-02-08T14:12:29.575Z,9.01
2019-02-08T14:15:00.485Z,8.89
2019-02-08T14:17:31.415Z,8.83
2019-02-08T14:20:02.381Z,8.83
2019-02-08T14:22:33.313Z,8.75
2019-02-08T14:25:05.625Z,8.76
2019-02-08T14:27:36.575Z,8.70
2019-02-08T14:30:18.902Z,8.69
2019-02-08T14:32:49.817Z,8.66
2019-02-08T14:35:20.756Z,8.63
2019-02-08T14:37:51.810Z,8.55
2019-02-08T14:40:24.607Z,8.52
2019-02-08T14:42:55.732Z,8.48
2019-02-08T14:45:26.638Z,8.48
2019-02-08T14:47:57.571Z,8.46
2019-02-08T14:50:29.781Z,8.40
2019-02-08T14:53:00.811Z,8.37
2019-02-08T14:55:31.711Z,8.32
2019-02-08T14:58:05.017Z,8.20
2019-02-08T15:00:35.977Z,8.18
2019-02-08T15:03:06.913Z,8.16
2019-02-08T15:05:37.807Z,8.10
2019-02-08T15:08:08.741Z,8.08
2019-02-08T15:10:42.637Z,8.10
2019-02-08T15:13:13.795Z,8.13
2019-02-08T15:15:44.699Z,8.14
2019-02-08T15:18:15.610Z,8.15
2019-02-08T15:20:46.505Z,8.16
2019-02-08T15:23:17.595Z,8.16
2019-02-08T15:25:48.492Z,8.16
2019-02-08T15:28:19.469Z,8.14
2019-02-08T15:30:50.375Z,8.15
2019-02-08T15:33:21.333Z,8.14
2019-02-08T15:35:52.201Z,8.12
2019-02-08T15:38:23.238Z,8.11
2019-02-08T15:40:55.648Z,8.15
2019-02-08T15:43:26.705Z,8.07
2019-02-08T15:45:59.546Z,8.08
2019-02-08T15:48:30.572Z,8.04
2019-02-08T15:51:01.675Z,8.01
2019-02-08T15:53:32.897Z,7.92
2019-02-08T15:56:06.993Z,7.86
2019-02-08T15:58:37.996Z,7.81
2019-02-08T16:01:10.172Z,7.73
2019-02-08T16:03:41.212Z,7.71
2019-02-08T16:06:12.423Z,7.70
2019-02-08T16:08:43.378Z,7.72
2019-02-08T16:11:14.312Z,7.66
2019-02-08T16:13:45.334Z,7.67
2019-02-08T16:16:16.379Z,7.63
2019-02-08T16:18:47.382Z,7.63
2019-02-08T16:21:18.507Z,7.58
2019-02-08T16:23:49.477Z,7.58
2019-02-08T16:26:24.205Z,7.57
2019-02-08T16:28:55.183Z,7.58
2019-02-08T16:31:26.120Z,7.60
2019-02-08T16:33:57.195Z,7.62
2019-02-08T16:36:28.218Z,7.63
2019-02-08T16:38:59.186Z,7.59
2019-02-08T16:41:30.192Z,7.60
2019-02-08T16:44:01.259Z,7.61
2019-02-08T16:46:33.471Z,7.56
2019-02-08T16:49:04.744Z,7.54
2019-02-08T16:51:35.640Z,7.57
2019-02-08T16:54:06.760Z,7.59
2019-02-08T16:56:38.546Z,7.55
2019-02-08T16:59:09.646Z,7.54
2019-02-08T17:01:40.565Z,7.56
2019-02-08T17:04:11.575Z,7.57
2019-02-08T17:06:42.512Z,7.61
2019-02-08T17:09:14.044Z,7.61
2019-02-08T17:11:44.957Z,7.63
2019-02-08T17:14:15.928Z,7.65
2019-02-08T17:16:46.832Z,7.64
2019-02-08T17:19:17.781Z,7.60
2019-02-08T17:21:48.939Z,7.54
2019-02-08T17:24:19.878Z,7.51
2019-02-08T17:26:50.775Z,7.48
2019-02-08T17:29:21.848Z,7.45
2019-02-08T17:31:52.731Z,7.48
2019-02-08T17:34:23.663Z,7.45
2019-02-08T17:36:54.565Z,7.45
2019-02-08T17:39:25.497Z,7.37
2019-02-08T17:41:56.412Z,7.36
2019-02-08T17:44:27.368Z,7.34
2019-02-08T17:46:58.276Z,7.38
2019-02-08T17:49:29.307Z,7.33
2019-02-08T17:52:00.205Z,7.32
2019-02-08T17:54:31.148Z,7.29
2019-02-08T17:57:02.141Z,7.28
2019-02-08T17:59:33.109Z,7.30
2019-02-08T18:02:04.020Z,7.25
2019-02-08T18:04:34.963Z,7.24
2019-02-08T18:07:05.887Z,7.24
2019-02-08T18:09:36.850Z,7.23
2019-02-08T18:12:07.768Z,7.25
2019-02-08T18:14:38.867Z,7.22
2019-02-08T18:17:09.765Z,7.22
2019-02-08T18:19:40.698Z,7.20
2019-02-08T18:22:11.600Z,7.16
2019-02-08T18:24:42.563Z,7.18
2019-02-08T18:27:13.467Z,7.13
2019-02-08T18:29:44.545Z,7.13
2019-02-08T18:32:15.452Z,7.13
2019-02-08T18:34:46.372Z,7.12
2019-02-08T18:37:17.278Z,7.08
2019-02-08T18:39:48.211Z,7.10
2019-02-08T18:42:19.110Z,7.14
2019-02-08T18:44:50.079Z,7.10
2019-02-08T18:47:20.975Z,7.12
2019-02-08T18:49:51.928Z,7.14
2019-02-08T18:52:22.821Z,7.09
2019-02-08T18:54:53.763Z,7.06
2019-02-08T18:57:25.451Z,7.06
2019-02-08T18:59:56.416Z,7.10
2019-02-08T19:02:27.325Z,7.09
2019-02-08T19:04:58.277Z,7.09
2019-02-08T19:07:29.187Z,7.06
2019-02-08T19:10:00.216Z,7.04
2019-02-08T19:12:31.082Z,7.02
2019-02-08T19:15:02.037Z,7.02
2019-02-08T19:17:33.022Z,7.01
2019-02-08T19:20:05.146Z,6.94
2019-02-08T19:22:36.068Z,6.94
2019-02-08T19:25:09.904Z,6.95
2019-02-08T19:27:40.806Z,6.93
2019-02-08T19:30:20.467Z,6.99
2019-02-08T19:32:51.379Z,6.98
2019-02-08T19:35:22.318Z,7.02
2019-02-08T19:37:53.218Z,7.05
2019-02-08T19:40:27.131Z,7.01
2019-02-08T19:42:58.043Z,7.05
2019-02-08T19:45:29.018Z,7.06
2019-02-08T19:48:00.038Z,7.02
2019-02-08T19:50:33.754Z,7.03
2019-02-08T19:53:05.782Z,7.10
2019-02-08T19:55:36.718Z,7.07
2019-02-08T19:58:08.523Z,7.07
2019-02-08T20:00:44.369Z,7.02
2019-02-08T20:03:15.279Z,6.97
2019-02-08T20:05:46.210Z,7.01
2019-02-08T20:08:17.099Z,6.99
2019-02-08T20:10:49.807Z,6.97
2019-02-08T20:13:20.720Z,6.91
2019-02-08T20:15:51.718Z,6.98
2019-02-08T20:18:22.619Z,6.97
2019-02-08T20:20:53.570Z,6.96
2019-02-08T20:23:24.497Z,6.92
2019-02-08T20:25:55.413Z,6.91
2019-02-08T20:28:26.315Z,6.93
2019-02-08T20:30:57.272Z,6.94
2019-02-08T20:33:28.182Z,6.91
2019-02-08T20:35:59.115Z,6.82
2019-02-08T20:38:30.021Z,6.85
2019-02-08T20:41:00.961Z,6.88
2019-02-08T20:43:31.868Z,6.89
2019-02-08T20:46:02.821Z,6.84
2019-02-08T20:48:33.737Z,6.76
2019-02-08T20:51:04.680Z,6.79
2019-02-08T20:53:35.646Z,6.70
2019-02-08T20:56:06.981Z,6.73
2019-02-08T20:58:38.799Z,6.68
2019-02-08T21:01:10.057Z,6.58
2019-02-08T21:03:40.966Z,6.51
2019-02-08T21:06:12.006Z,6.44
2019-02-08T21:08:42.912Z,6.40
2019-02-08T21:11:13.838Z,6.33
2019-02-08T21:13:44.743Z,6.27
2019-02-08T21:16:21.254Z,6.24
2019-02-08T21:18:52.168Z,6.27
2019-02-08T21:21:23.097Z,6.22
2019-02-08T21:23:54.009Z,6.19
2019-02-08T21:26:24.943Z,6.18
2019-02-08T21:28:58.078Z,6.15
2019-02-08T21:31:28.506Z,6.12
2019-02-08T21:33:59.523Z,6.13
2019-02-08T21:36:38.589Z,6.14
2019-02-08T21:39:03.336Z,6.14
2019-02-08T21:41:34.266Z,6.14
2019-02-08T21:44:05.367Z,6.11
2019-02-08T21:46:36.329Z,6.15
2019-02-08T21:49:07.220Z,6.11
2019-02-08T21:51:38.143Z,6.10
2019-02-08T21:54:09.053Z,6.08
2019-02-08T21:56:39.981Z,6.08
2019-02-08T21:59:11.993Z,6.07
2019-02-08T22:01:42.993Z,6.10
2019-02-08T22:04:14.213Z,6.07
2019-02-08T22:06:45.162Z,6.11
2019-02-08T22:09:16.161Z,6.07
2019-02-08T22:11:47.096Z,6.05
2019-02-08T22:14:18.002Z,6.09
2019-02-08T22:16:49.036Z,6.08
2019-02-08T22:19:19.946Z,6.08
2019-02-08T22:21:50.894Z,6.13
2019-02-08T22:24:21.805Z,6.15
2019-02-08T22:26:52.741Z,6.12
2019-02-08T22:29:23.644Z,6.14
2019-02-08T22:31:54.605Z,6.17
2019-02-08T22:34:25.508Z,6.18
2019-02-08T22:36:56.455Z,6.14
2019-02-08T22:39:27.364Z,6.17
2019-02-08T22:41:58.297Z,6.16
2019-02-08T22:44:29.203Z,6.22
2019-02-08T22:47:00.161Z,6.23
2019-02-08T22:49:31.088Z,6.23
2019-02-08T22:52:02.022Z,6.22
2019-02-08T22:54:32.947Z,6.20
2019-02-08T22:57:03.874Z,6.23
2019-02-08T22:59:34.789Z,6.21
2019-02-08T23:02:07.533Z,6.20
2019-02-08T23:04:38.440Z,6.18
2019-02-08T23:07:09.582Z,6.14
2019-02-08T23:09:40.488Z,6.14
2019-02-08T23:12:11.427Z,6.10
2019-02-08T23:14:42.327Z,6.11
2019-02-08T23:17:13.283Z,6.14
2019-02-08T23:19:44.182Z,6.13
2019-02-08T23:22:15.121Z,6.15
2019-02-08T23:24:46.197Z,6.18
2019-02-08T23:27:17.126Z,6.14
2019-02-08T23:29:48.035Z,6.10
2019-02-08T23:32:18.987Z,6.10
2019-02-08T23:34:49.891Z,6.14
2019-02-08T23:37:25.885Z,6.17
2019-02-08T23:42:54.304Z,6.12
2019-02-08T23:45:25.209Z,6.16
2019-02-08T23:47:59.676Z,6.17
2019-02-08T23:50:30.579Z,6.19
2019-02-08T23:53:01.554Z,6.21
2019-02-08T23:55:32.454Z,6.19
2019-02-08T23:58:03.381Z,6.19
